الصفحة الرئيسية
METAR-TAF:

METAR-TAF

مطار :

مطار روبرتس

مونروفيا, ليبيريا

دائرة عرض: 06-15N, خط طول: 010-21W, ارتفاع: 18 متر

مراقبة الطقس الحالي

تاريخ ووقت الإصدار 1ساعة و 6 دقيقة قبل الساعة 09:00UTC
ريح 3 عقدة من الشرق/الشمال الشرقي
درجة الحرارة 26°درجة مئوية
الرطوبة 89%
ضغط 1011 hPa
الرؤية 10 كم أو أكثر
غيوم متفرقة على ارتفاع 1300 قدم

METAR: GLRB 150900Z 06003KT 9999 SCT013 26/24 Q1011 NOSIG

زمن: 10:06 (10:06 UTC)

توقعات

تاريخ ووقت الإصدار 5ساعات و 6 دقيقة قبل الساعة 05:00UTC
التوقعات صالحة من15 الساعة 00 UTC إلى 16 الساعة 06 UTC
ريح 4 عقدة من الجنوب/الجنوب الغربي
الرؤية 10 كم أو أكثر
غيوم قليلة على ارتفاع 1200 قدم
مؤقت
من 15 الساعة 07 UTC إلى 15 الساعة 11 UTC
ريح 6 عقدة من الشمال/الشمال الشرقي
غيوم متفرقة على ارتفاع 1300 قدم
غيوم قليلة على ارتفاع 2300 قدم, مزنة ركامية.
أصبح
من 15 الساعة 13 UTC إلى 15 الساعة 15 UTC
ريح 10 عقدة من الغرب/الجنوب الغربي
الرؤية 10 كم أو أكثر
غيوم متفرقة على ارتفاع 1800 قدم

TAF: GLRB 150500Z 1500/1606 20004KT 9999 FEW012 TEMPO 1507/1511 02006KT SCT013 FEW023CB BECMG 1513/1515 25010KT 9999 SCT018

أرصاد الطقس والتوقعات من أكثر من 4000 مطار (تقارير الطقس للمطار METAR والتنبؤ بالطقس بالمطارTAF).

المحطات المتاحة هي النقط الصفراء والحمراء على الخريطة.

حرك المؤشر فوق النقطة لمعرفة اسم المحطة.

ثم انقر لمعرفة أرصاد وتوقعات الطقس.

لتغيير الخارطة: اضغط على الأزرار الخضراء مع رمز الصليب الأسود للتكبير. على الزر الأخضر مع شرطة للتصغير، أو على الأسهم الخضراء للخرائط المجاورة.


METAR-TAF: